Time;durP1;ratioP1;P1;durP2;ratioP2;P2;SDS_P1;SDS_P2;PMS_P1;PMS_P2;Temp;Humidity;BMP_temperature;BMP_pressure;BME280_temperature;BME280_humidity;BME280_pressure;Samples;Min_cycle;Max_cycle;Signal;HPM_P1;HPM_P2
2023/03/24 00:01:56;;;;;;;5.65;4.47;;;;;;;;;;5092047;28;20101;-86
2023/03/24 00:04:26;;;;;;;4.65;4.13;;;;;;;;;;5092047;28;20476;-87
2023/03/24 00:06:52;;;;;;;4.93;4.20;;;;;;;;;;5091953;28;20036;-86
2023/03/24 00:09:19;;;;;;;5.63;4.22;;;;;;;;;;5091933;28;20031;-87
2023/03/24 00:11:45;;;;;;;4.93;4.00;;;;;;;;;;5092011;28;20028;-87
2023/03/24 00:14:11;;;;;;;5.20;4.00;;;;;;;;;;5091534;28;20370;-87
2023/03/24 00:16:41;;;;;;;4.65;3.70;;;;;;;;;;5092007;28;20093;-87
2023/03/24 00:19:08;;;;;;;5.07;4.20;;;;;;;;;;5091909;28;20078;-87
2023/03/24 00:21:36;;;;;;;4.90;4.13;;;;;;;;;;5091895;28;20037;-87
2023/03/24 00:24:03;;;;;;;6.20;4.22;;;;;;;;;;5091918;28;20016;-88
2023/03/24 00:26:31;;;;;;;5.78;4.18;;;;;;;;;;5091712;28;20036;-87
2023/03/24 00:28:57;;;;;;;4.70;4.07;;;;;;;;;;5091866;28;20040;-87
2023/03/24 00:31:24;;;;;;;5.05;4.38;;;;;;;;;;5091740;28;20020;-87
2023/03/24 00:33:50;;;;;;;5.00;3.75;;;;;;;;;;5091823;28;20024;-87
2023/03/24 00:36:18;;;;;;;4.97;4.05;;;;;;;;;;5091715;28;20456;-87
2023/03/24 00:38:46;;;;;;;6.95;4.13;;;;;;;;;;5091673;28;20035;-87
2023/03/24 00:41:12;;;;;;;7.75;4.45;;;;;;;;;;5091537;28;20094;-87
2023/03/24 00:43:39;;;;;;;5.22;4.35;;;;;;;;;;5091747;28;20478;-88
2023/03/24 00:46:06;;;;;;;5.85;4.07;;;;;;;;;;5091578;28;20418;-88
2023/03/24 00:48:33;;;;;;;5.00;3.85;;;;;;;;;;5091630;28;20052;-87
2023/03/24 00:51:01;;;;;;;4.55;4.03;;;;;;;;;;5091639;28;20077;-87
2023/03/24 00:53:28;;;;;;;7.00;4.30;;;;;;;;;;5091575;28;20052;-87
2023/03/24 00:55:55;;;;;;;4.80;4.30;;;;;;;;;;5091556;28;20393;-87
2023/03/24 00:58:21;;;;;;;5.88;4.10;;;;;;;;;;5091603;28;20025;-87
2023/03/24 01:00:55;;;;;;;5.25;4.47;;;;;;;;;;5091479;28;20057;-87
2023/03/24 01:03:26;;;;;;;9.25;4.25;;;;;;;;;;5091595;28;20043;-87
2023/03/24 01:05:53;;;;;;;6.03;3.97;;;;;;;;;;5091484;28;20032;-87
2023/03/24 01:08:19;;;;;;;5.22;3.55;;;;;;;;;;5091438;28;20032;-87
2023/03/24 01:10:51;;;;;;;4.53;3.72;;;;;;;;;;5091422;28;20046;-87
2023/03/24 01:13:17;;;;;;;;;;;;;;;;;;5091866;28;20117;-87
2023/03/24 01:15:44;;;;;;;4.63;3.70;;;;;;;;;;5091394;28;20250;-87
2023/03/24 01:18:14;;;;;;;6.28;4.15;;;;;;;;;;5091304;28;20482;-87
2023/03/24 01:20:44;;;;;;;5.43;4.03;;;;;;;;;;5091319;28;20119;-87
2023/03/24 01:23:11;;;;;;;4.43;3.60;;;;;;;;;;5091339;28;20069;-87
2023/03/24 01:25:38;;;;;;;4.57;3.70;;;;;;;;;;5093040;28;20025;-87
2023/03/24 01:28:05;;;;;;;3.83;3.42;;;;;;;;;;5095014;28;20456;-87
2023/03/24 01:30:31;;;;;;;6.07;3.80;;;;;;;;;;5094914;28;20362;-87
2023/03/24 01:32:57;;;;;;;4.72;3.65;;;;;;;;;;5094947;28;20021;-87
2023/03/24 01:35:24;;;;;;;5.13;3.72;;;;;;;;;;5094857;28;20016;-86
2023/03/24 01:37:51;;;;;;;5.40;4.10;;;;;;;;;;5094755;28;20035;-87
2023/03/24 01:40:20;;;;;;;4.35;3.50;;;;;;;;;;5094565;28;20061;-87
2023/03/24 01:42:46;;;;;;;4.40;3.53;;;;;;;;;;5095002;28;20509;-87
2023/03/24 01:45:31;;;;;;;4.50;3.65;;;;;;;;;;5094651;28;20031;-87
2023/03/24 01:47:57;;;;;;;3.97;3.45;;;;;;;;;;5094567;28;20040;-87
2023/03/24 01:50:24;;;;;;;5.53;3.80;;;;;;;;;;5094525;28;20027;-87
2023/03/24 01:52:50;;;;;;;6.32;3.70;;;;;;;;;;5094484;28;20482;-87
2023/03/24 01:55:18;;;;;;;4.07;3.67;;;;;;;;;;5094474;28;20023;-87
2023/03/24 01:57:50;;;;;;;4.72;3.67;;;;;;;;;;5094461;28;20024;-87
2023/03/24 02:00:17;;;;;;;5.80;3.33;;;;;;;;;;5094392;28;20020;-87
2023/03/24 02:02:53;;;;;;;6.72;4.00;;;;;;;;;;5094339;28;20020;-86
2023/03/24 02:05:21;;;;;;;4.47;3.80;;;;;;;;;;5094240;28;20032;-87
2023/03/24 02:07:52;;;;;;;5.38;4.00;;;;;;;;;;5094112;28;20035;-87
2023/03/24 02:10:20;;;;;;;5.07;3.80;;;;;;;;;;5094484;28;20054;-87
2023/03/24 02:12:47;;;;;;;4.43;3.72;;;;;;;;;;5094128;28;20072;-87
2023/03/24 02:15:14;;;;;;;3.85;3.45;;;;;;;;;;5094081;28;20016;-87
2023/03/24 02:17:41;;;;;;;5.22;4.30;;;;;;;;;;5093991;28;20024;-87
2023/03/24 02:20:16;;;;;;;4.25;3.80;;;;;;;;;;5094011;28;20428;-87
2023/03/24 02:22:48;;;;;;;5.78;4.28;;;;;;;;;;5093952;28;20047;-87
2023/03/24 02:25:30;;;;;;;4.40;4.00;;;;;;;;;;5093850;28;20078;-87
2023/03/24 02:28:05;;;;;;;4.53;3.78;;;;;;;;;;5093815;28;20119;-87
2023/03/24 02:30:41;;;;;;;4.70;4.03;;;;;;;;;;5093712;28;20032;-88
2023/03/24 02:33:07;;;;;;;5.05;3.95;;;;;;;;;;5093801;28;20028;-87
2023/03/24 02:35:36;;;;;;;5.63;4.15;;;;;;;;;;5093306;28;20027;-87
2023/03/24 02:38:09;;;;;;;5.22;3.88;;;;;;;;;;5093703;28;20026;-87
2023/03/24 02:40:54;;;;;;;4.97;4.10;;;;;;;;;;5093327;28;20402;-87
2023/03/24 02:43:26;;;;;;;4.75;3.75;;;;;;;;;;5093669;28;20024;-87
2023/03/24 02:46:03;;;;;;;4.28;3.80;;;;;;;;;;5093739;28;20051;-87
2023/03/24 02:48:32;;;;;;;7.03;4.05;;;;;;;;;;5093449;28;20035;-87
2023/03/24 02:51:08;;;;;;;4.95;3.80;;;;;;;;;;5093372;28;20095;-87
2023/03/24 02:53:35;;;;;;;4.45;3.78;;;;;;;;;;5093934;28;20085;-87
2023/03/24 02:56:12;;;;;;;5.20;3.92;;;;;;;;;;5093375;28;20024;-88
2023/03/24 02:58:42;;;;;;;4.90;3.85;;;;;;;;;;5093327;28;20047;-87
2023/03/24 03:01:12;;;;;;;5.78;3.55;;;;;;;;;;5093193;28;20389;-87
2023/03/24 03:03:50;;;;;;;5.40;4.15;;;;;;;;;;5093192;28;20024;-87
2023/03/24 03:06:25;;;;;;;4.35;3.40;;;;;;;;;;5093045;28;20036;-87
2023/03/24 03:08:52;;;;;;;6.63;3.58;;;;;;;;;;5093036;28;20024;-87
2023/03/24 03:11:19;;;;;;;4.25;3.78;;;;;;;;;;5092958;28;20069;-87
2023/03/24 03:13:49;;;;;;;5.78;3.50;;;;;;;;;;5092998;28;20396;-87
2023/03/24 03:16:20;;;;;;;5.65;4.00;;;;;;;;;;5092832;28;20016;-87
2023/03/24 03:18:51;;;;;;;4.15;3.58;;;;;;;;;;5092876;28;20016;-87
2023/03/24 03:21:19;;;;;;;5.90;4.07;;;;;;;;;;5092866;28;20490;-88
2023/03/24 03:23:56;;;;;;;5.05;3.78;;;;;;;;;;5092861;28;20038;-87
2023/03/24 03:26:25;;;;;;;8.38;3.88;;;;;;;;;;5092657;28;20043;-87
2023/03/24 03:28:56;;;;;;;4.25;3.20;;;;;;;;;;5092772;28;20050;-87
2023/03/24 03:31:28;;;;;;;3.80;3.40;;;;;;;;;;5093148;28;20466;-87
2023/03/24 03:34:14;;;;;;;4.22;3.33;;;;;;;;;;5092593;28;20053;-87
2023/03/24 03:36:44;;;;;;;4.35;3.22;;;;;;;;;;5092534;28;20534;-87
2023/03/24 03:39:17;;;;;;;4.10;3.17;;;;;;;;;;5094339;28;20047;-88
2023/03/24 03:41:43;;;;;;;4.60;2.83;;;;;;;;;;5095876;28;20036;-87
2023/03/24 03:44:09;;;;;;;5.10;3.15;;;;;;;;;;5095789;28;20042;-87
2023/03/24 03:46:36;;;;;;;4.65;3.42;;;;;;;;;;5095614;28;20036;-87
2023/03/24 03:49:03;;;;;;;5.25;3.50;;;;;;;;;;5095033;28;20019;-87
2023/03/24 03:51:29;;;;;;;3.63;2.80;;;;;;;;;;5095658;28;20554;-87
2023/03/24 03:54:01;;;;;;;5.22;2.95;;;;;;;;;;5095644;28;20028;-87
2023/03/24 03:56:29;;;;;;;4.88;3.10;;;;;;;;;;5095664;28;20531;-87
2023/03/24 03:58:55;;;;;;;5.20;3.05;;;;;;;;;;5095873;28;20027;-88
2023/03/24 04:01:24;;;;;;;3.70;2.97;;;;;;;;;;5095597;28;20043;-87
2023/03/24 04:03:57;;;;;;;4.10;3.20;;;;;;;;;;5095623;28;20019;-87
2023/03/24 04:06:27;;;;;;;4.63;3.13;;;;;;;;;;5095340;28;20042;-88
2023/03/24 04:09:00;;;;;;;4.60;3.20;;;;;;;;;;5095455;28;20020;-89
2023/03/24 04:11:44;;;;;;;3.65;2.95;;;;;;;;;;5095494;28;20096;-88
2023/03/24 04:14:26;;;;;;;3.78;3.03;;;;;;;;;;5095427;28;20051;-87
2023/03/24 04:16:58;;;;;;;4.78;3.28;;;;;;;;;;5095425;28;20056;-87
2023/03/24 04:19:26;;;;;;;8.52;3.35;;;;;;;;;;5078630;28;20414;-87
2023/03/24 04:22:01;;;;;;;3.60;3.20;;;;;;;;;;5095358;28;20024;-88
2023/03/24 04:24:28;;;;;;;4.47;3.42;;;;;;;;;;5095302;28;20370;-87
2023/03/24 04:27:13;;;;;;;4.25;3.75;;;;;;;;;;5095241;28;20123;-87
2023/03/24 04:30:01;;;;;;;3.92;3.00;;;;;;;;;;5095262;28;20035;-87
2023/03/24 04:32:33;;;;;;;3.38;2.78;;;;;;;;;;5095262;28;20496;-87
2023/03/24 04:35:04;;;;;;;5.05;3.10;;;;;;;;;;5095286;28;20023;-87
2023/03/24 04:37:32;;;;;;;4.75;3.25;;;;;;;;;;5095550;28;20038;-87
2023/03/24 04:39:59;;;;;;;4.03;3.38;;;;;;;;;;5094999;28;20409;-87
2023/03/24 04:42:28;;;;;;;4.22;3.10;;;;;;;;;;5095374;28;20035;-87
2023/03/24 04:44:56;;;;;;;3.60;2.92;;;;;;;;;;5095085;28;20492;-87
2023/03/24 04:47:25;;;;;;;4.30;3.60;;;;;;;;;;5094891;28;20039;-87
2023/03/24 04:49:51;;;;;;;4.50;3.80;;;;;;;;;;5095292;28;20525;-88
2023/03/24 04:52:17;;;;;;;3.85;3.13;;;;;;;;;;5095006;28;20030;-87
2023/03/24 04:54:44;;;;;;;4.32;3.50;;;;;;;;;;5095014;28;20481;-87
2023/03/24 04:57:10;;;;;;;7.25;3.90;;;;;;;;;;5094967;28;20058;-87
2023/03/24 04:59:36;;;;;;;4.90;3.33;;;;;;;;;;5096680;28;20443;-87
2023/03/24 05:02:03;;;;;;;3.97;3.45;;;;;;;;;;5098886;28;20028;-86
2023/03/24 05:04:29;;;;;;;4.22;3.53;;;;;;;;;;5098913;28;20031;-87
2023/03/24 05:06:56;;;;;;;5.32;3.90;;;;;;;;;;5098699;28;20038;-87
2023/03/24 05:09:24;;;;;;;4.75;3.88;;;;;;;;;;5098669;28;20024;-86
2023/03/24 05:11:50;;;;;;;5.25;3.85;;;;;;;;;;5098665;28;20079;-86
2023/03/24 05:14:17;;;;;;;6.75;3.75;;;;;;;;;;5098615;28;20028;-86
2023/03/24 05:16:43;;;;;;;4.80;3.83;;;;;;;;;;5098648;28;20081;-86
2023/03/24 05:19:09;;;;;;;4.38;3.97;;;;;;;;;;5098628;28;20076;-86
2023/03/24 05:21:36;;;;;;;5.22;4.32;;;;;;;;;;5098482;28;20027;-87
2023/03/24 05:24:02;;;;;;;6.53;3.80;;;;;;;;;;5098415;28;20043;-87
2023/03/24 05:26:30;;;;;;;4.03;3.55;;;;;;;;;;5098397;28;20123;-87
2023/03/24 05:28:56;;;;;;;4.63;4.00;;;;;;;;;;5098409;28;20119;-87
2023/03/24 05:31:22;;;;;;;6.10;4.00;;;;;;;;;;5098326;28;20125;-87
2023/03/24 05:33:48;;;;;;;5.35;4.22;;;;;;;;;;5098313;28;20390;-87
2023/03/24 05:36:15;;;;;;;4.72;3.85;;;;;;;;;;5098249;28;20488;-87
2023/03/24 05:38:41;;;;;;;4.30;3.90;;;;;;;;;;5098255;28;20028;-88
2023/03/24 05:41:07;;;;;;;5.68;4.10;;;;;;;;;;5097951;28;20046;-87
2023/03/24 05:43:33;;;;;;;5.28;4.47;;;;;;;;;;5098182;28;20392;-87
2023/03/24 05:46:01;;;;;;;5.80;4.15;;;;;;;;;;5097941;28;20024;-87
2023/03/24 05:48:27;;;;;;;6.20;4.50;;;;;;;;;;5098078;28;20032;-87
2023/03/24 05:50:54;;;;;;;6.80;4.00;;;;;;;;;;5098128;28;20016;-88
2023/03/24 05:53:20;;;;;;;7.00;4.20;;;;;;;;;;5097911;28;20031;-88
2023/03/24 05:55:47;;;;;;;4.40;4.00;;;;;;;;;;5097876;28;20020;-88
2023/03/24 05:58:15;;;;;;;5.43;4.45;;;;;;;;;;5097779;28;20027;-88
2023/03/24 06:00:41;;;;;;;8.02;6.20;;;;;;;;;;5098114;28;20485;-88
2023/03/24 06:03:07;;;;;;;5.70;4.75;;;;;;;;;;5098029;28;20023;-90
2023/03/24 06:05:34;;;;;;;8.27;6.38;;;;;;;;;;5098973;28;20024;-90
2023/03/24 06:08:01;;;;;;;6.88;6.15;;;;;;;;;;5098731;28;20089;-92
2023/03/24 06:10:28;;;;;;;8.50;6.53;;;;;;;;;;5098282;28;20024;-91
2023/03/24 06:12:54;;;;;;;7.85;6.78;;;;;;;;;;5099042;28;20077;-91
2023/03/24 06:15:26;;;;;;;8.15;6.22;;;;;;;;;;5099096;28;20020;-93
2023/03/24 06:17:56;;;;;;;6.38;5.57;;;;;;;;;;5117077;28;20019;-90
2023/03/24 06:20:22;;;;;;;7.65;6.40;;;;;;;;;;5099116;28;20023;-92
2023/03/24 06:22:49;;;;;;;8.00;5.75;;;;;;;;;;5099068;28;20050;-91
2023/03/24 06:25:16;;;;;;;8.63;6.70;;;;;;;;;;5098670;28;20118;-92
2023/03/24 06:27:45;;;;;;;7.28;5.80;;;;;;;;;;5098750;28;20046;-91
2023/03/24 06:30:12;;;;;;;10.48;6.93;;;;;;;;;;5098981;28;20020;-92
2023/03/24 06:32:38;;;;;;;6.93;6.10;;;;;;;;;;5098644;28;20038;-92
2023/03/24 06:35:06;;;;;;;8.95;6.80;;;;;;;;;;5098504;28;20374;-92
2023/03/24 06:37:32;;;;;;;7.70;6.30;;;;;;;;;;5098569;28;20034;-93
2023/03/24 06:39:59;;;;;;;8.13;5.90;;;;;;;;;;5098401;28;20047;-92
2023/03/24 06:42:26;;;;;;;8.38;6.55;;;;;;;;;;5116631;28;20527;-93
2023/03/24 06:44:52;;;;;;;7.60;6.45;;;;;;;;;;5098777;28;20023;-93
2023/03/24 06:47:18;;;;;;;7.38;6.00;;;;;;;;;;5098713;28;20516;-94
2023/03/24 06:49:45;;;;;;;7.63;5.88;;;;;;;;;;5098757;28;20088;-93
2023/03/24 06:52:11;;;;;;;10.32;7.70;;;;;;;;;;5098533;28;20087;-94
2023/03/24 06:54:37;;;;;;;10.77;7.35;;;;;;;;;;5098519;28;20020;-94
2023/03/24 06:57:04;;;;;;;13.93;9.18;;;;;;;;;;5098426;28;20072;-94
2023/03/24 06:59:33;;;;;;;10.18;8.38;;;;;;;;;;5098557;28;20016;-95
2023/03/24 07:02:00;;;;;;;90.15;12.93;;;;;;;;;;5082248;28;20034;-93
2023/03/24 07:04:26;;;;;;;31.38;10.23;;;;;;;;;;5099791;28;20023;-93
2023/03/24 07:06:54;;;;;;;14.95;9.60;;;;;;;;;;5116400;28;20500;-94
2023/03/24 07:09:21;;;;;;;15.27;10.27;;;;;;;;;;5098222;28;20093;-96
2023/03/24 07:11:47;;;;;;;13.25;9.95;;;;;;;;;;5098922;28;20027;-96
2023/03/24 07:14:13;;;;;;;12.25;8.57;;;;;;;;;;5102434;28;20030;-93
2023/03/24 07:16:39;;;;;;;9.98;7.78;;;;;;;;;;5099481;28;20056;-92
2023/03/24 07:19:36;;;;;;;8.43;7.63;;;;;;;;;;5099319;28;20046;-95
2023/03/24 07:22:07;;;;;;;11.50;7.35;;;;;;;;;;5097791;28;20036;-96
2023/03/24 07:24:34;;;;;;;9.77;7.78;;;;;;;;;;5097511;28;20462;-95
2023/03/24 07:27:01;;;;;;;8.57;6.88;;;;;;;;;;5098223;28;20042;-96
2023/03/24 07:29:27;;;;;;;7.97;6.43;;;;;;;;;;5100477;28;20020;-96
2023/03/24 07:31:57;;;;;;;11.18;7.28;;;;;;;;;;5135080;22;20397;-79
2023/03/24 07:34:27;;;;;;;8.10;5.93;;;;;;;;;;5076571;28;20827;-78
2023/03/24 07:36:53;;;;;;;10.55;7.28;;;;;;;;;;5069735;28;20032;-79
2023/03/24 07:39:20;;;;;;;9.38;6.30;;;;;;;;;;5065959;28;20436;-77
2023/03/24 07:41:47;;;;;;;9.43;6.45;;;;;;;;;;5063658;28;20113;-78
2023/03/24 07:44:13;;;;;;;9.57;7.20;;;;;;;;;;5068414;28;20051;-78
2023/03/24 07:46:40;;;;;;;8.70;6.45;;;;;;;;;;5062185;28;20116;-78
2023/03/24 07:49:06;;;;;;;7.22;5.93;;;;;;;;;;5064456;28;20024;-78
2023/03/24 07:51:32;;;;;;;11.45;8.13;;;;;;;;;;5066790;28;20031;-77
2023/03/24 07:53:59;;;;;;;12.38;9.98;;;;;;;;;;5065531;28;20047;-78
2023/03/24 07:56:25;;;;;;;16.02;11.20;;;;;;;;;;5066430;28;20067;-78
2023/03/24 07:58:51;;;;;;;12.75;10.07;;;;;;;;;;5065563;28;20558;-77
2023/03/24 08:01:20;;;;;;;10.45;8.73;;;;;;;;;;5070410;28;20032;-78
2023/03/24 08:03:47;;;;;;;14.95;9.80;;;;;;;;;;5064279;28;20039;-77
2023/03/24 08:06:14;;;;;;;17.52;9.80;;;;;;;;;;5065785;28;20020;-78
2023/03/24 08:08:40;;;;;;;12.85;8.65;;;;;;;;;;5065609;28;20035;-77
2023/03/24 08:11:06;;;;;;;12.45;9.98;;;;;;;;;;5069005;28;20034;-77
2023/03/24 08:13:33;;;;;;;13.82;10.02;;;;;;;;;;5070016;28;20502;-78
2023/03/24 08:15:59;;;;;;;15.77;9.85;;;;;;;;;;5070355;28;20024;-77
2023/03/24 08:18:25;;;;;;;13.95;9.98;;;;;;;;;;5065314;28;20039;-78
2023/03/24 08:20:55;;;;;;;17.08;9.70;;;;;;;;;;5072215;28;20028;-77
2023/03/24 08:23:21;;;;;;;11.50;8.75;;;;;;;;;;5062065;28;20099;-77
2023/03/24 08:25:49;;;;;;;11.68;9.07;;;;;;;;;;5066892;28;20599;-77
2023/03/24 08:28:16;;;;;;;8.38;7.50;;;;;;;;;;5070368;28;20534;-77
2023/03/24 08:30:42;;;;;;;9.32;7.93;;;;;;;;;;5063653;28;20036;-77
2023/03/24 08:33:10;;;;;;;10.73;8.18;;;;;;;;;;5061453;28;20052;-77
2023/03/24 08:35:40;;;;;;;10.32;8.10;;;;;;;;;;5066475;28;20122;-78
2023/03/24 08:38:08;;;;;;;10.98;8.38;;;;;;;;;;5071567;28;20023;-78
2023/03/24 08:40:34;;;;;;;10.85;9.48;;;;;;;;;;5074902;28;20111;-77
2023/03/24 08:43:02;;;;;;;12.70;9.30;;;;;;;;;;5073375;28;20027;-77
2023/03/24 08:45:30;;;;;;;12.80;9.63;;;;;;;;;;5074314;28;20032;-76
2023/03/24 08:48:00;;;;;;;13.95;9.70;;;;;;;;;;5069979;28;20075;-78
2023/03/24 08:50:27;;;;;;;13.07;9.90;;;;;;;;;;5070314;28;20032;-77
2023/03/24 08:52:54;;;;;;;14.55;9.57;;;;;;;;;;5072068;28;20031;-77
2023/03/24 08:55:21;;;;;;;16.08;10.05;;;;;;;;;;5070899;28;20020;-79
2023/03/24 08:57:47;;;;;;;12.05;9.05;;;;;;;;;;5075472;28;20505;-77
2023/03/24 09:00:14;;;;;;;12.50;9.13;;;;;;;;;;5069132;28;20082;-79
2023/03/24 09:02:50;;;;;;;12.18;9.68;;;;;;;;;;5073336;28;20025;-78
2023/03/24 09:05:19;;;;;;;9.55;8.35;;;;;;;;;;5068298;28;20032;-77
2023/03/24 09:07:46;;;;;;;10.73;9.35;;;;;;;;;;5076857;28;20035;-77
2023/03/24 09:10:13;;;;;;;13.52;9.27;;;;;;;;;;5073225;28;20107;-77
2023/03/24 09:12:40;;;;;;;12.43;9.55;;;;;;;;;;5069788;28;20047;-77
2023/03/24 09:15:07;;;;;;;12.85;8.85;;;;;;;;;;5071646;28;20027;-77
2023/03/24 09:17:34;;;;;;;13.77;9.02;;;;;;;;;;5063671;28;20017;-78
2023/03/24 09:20:00;;;;;;;8.43;7.53;;;;;;;;;;5073154;28;20027;-77
2023/03/24 09:22:26;;;;;;;6.68;5.82;;;;;;;;;;5072314;28;20024;-77
2023/03/24 09:24:52;;;;;;;5.80;3.92;;;;;;;;;;5066385;28;20047;-77
2023/03/24 09:27:19;;;;;;;9.10;4.97;;;;;;;;;;5077022;28;20150;-77
2023/03/24 09:29:46;;;;;;;5.65;3.90;;;;;;;;;;5073414;28;20502;-78
2023/03/24 09:32:12;;;;;;;9.43;7.15;;;;;;;;;;5069450;28;20056;-77
2023/03/24 09:34:38;;;;;;;10.90;7.57;;;;;;;;;;5073760;28;20078;-77
2023/03/24 09:37:05;;;;;;;10.68;6.93;;;;;;;;;;5075945;28;20416;-77
2023/03/24 09:39:34;;;;;;;10.43;7.45;;;;;;;;;;5077423;28;20699;-77
2023/03/24 09:42:00;;;;;;;11.13;8.43;;;;;;;;;;5070061;28;20035;-77
2023/03/24 09:44:40;;;;;;;10.10;7.85;;;;;;;;;;5067614;28;20036;-77
2023/03/24 09:47:16;;;;;;;8.80;6.97;;;;;;;;;;5070482;28;20036;-77
2023/03/24 09:49:43;;;;;;;11.85;7.80;;;;;;;;;;5072424;28;20048;-77
2023/03/24 09:52:11;;;;;;;8.63;6.43;;;;;;;;;;5074441;28;20594;-77
2023/03/24 09:54:41;;;;;;;13.23;6.20;;;;;;;;;;5067219;28;20089;-77
2023/03/24 09:57:16;;;;;;;7.75;6.15;;;;;;;;;;5066929;28;20044;-77
2023/03/24 09:59:42;;;;;;;5.78;5.10;;;;;;;;;;5074876;28;20028;-77
2023/03/24 10:02:21;;;;;;;7.03;5.50;;;;;;;;;;5069787;28;20156;-77
2023/03/24 10:04:48;;;;;;;6.70;5.53;;;;;;;;;;5072483;28;20055;-77
2023/03/24 10:07:37;;;;;;;8.50;5.60;;;;;;;;;;5049394;28;20063;-76
2023/03/24 10:10:13;;;;;;;8.02;5.22;;;;;;;;;;5070228;28;20035;-76
2023/03/24 10:12:43;;;;;;;5.35;4.50;;;;;;;;;;5069335;28;20035;-76
2023/03/24 10:15:30;;;;;;;7.82;4.82;;;;;;;;;;5070818;28;20116;-77
2023/03/24 10:18:03;;;;;;;6.85;5.13;;;;;;;;;;5070443;28;20032;-76
2023/03/24 10:20:43;;;;;;;5.03;4.25;;;;;;;;;;5075524;28;20617;-77
2023/03/24 10:23:10;;;;;;;6.68;5.95;;;;;;;;;;5068789;28;20397;-77
2023/03/24 10:25:55;;;;;;;6.72;5.30;;;;;;;;;;5067032;28;20322;-76
2023/03/24 10:28:51;;;;;;;5.97;5.03;;;;;;;;;;5069950;28;20044;-77
2023/03/24 10:31:28;;;;;;;8.68;5.38;;;;;;;;;;5062279;28;20036;-77
2023/03/24 10:33:54;;;;;;;5.80;4.63;;;;;;;;;;5066889;28;20028;-77
2023/03/24 10:36:21;;;;;;;4.75;4.20;;;;;;;;;;5070910;28;20111;-77
2023/03/24 10:38:47;;;;;;;5.20;4.38;;;;;;;;;;5070081;28;20724;-77
2023/03/24 10:41:21;;;;;;;6.13;4.78;;;;;;;;;;5063786;28;20031;-77
2023/03/24 10:43:51;;;;;;;5.70;4.88;;;;;;;;;;5074531;28;20023;-79
2023/03/24 10:46:30;;;;;;;8.13;4.50;;;;;;;;;;5073074;28;20020;-78
2023/03/24 10:49:30;;;;;;;4.97;4.50;;;;;;;;;;5064987;28;20035;-76
2023/03/24 10:52:01;;;;;;;5.40;4.65;;;;;;;;;;5064510;28;20032;-76
2023/03/24 10:54:30;;;;;;;6.72;5.05;;;;;;;;;;5067654;28;20030;-76
2023/03/24 10:57:01;;;;;;;5.50;4.90;;;;;;;;;;5062289;28;20056;-76
2023/03/24 10:59:27;;;;;;;6.78;4.63;;;;;;;;;;5063797;28;20024;-77
2023/03/24 11:02:17;;;;;;;6.78;5.00;;;;;;;;;;5072185;28;20066;-77
2023/03/24 11:05:06;;;;;;;5.90;5.30;;;;;;;;;;5057684;28;20048;-75
2023/03/24 11:07:35;;;;;;;6.68;5.32;;;;;;;;;;5062161;28;20079;-77
2023/03/24 11:10:07;;;;;;;5.80;5.28;;;;;;;;;;5069619;28;20032;-77
2023/03/24 11:12:34;;;;;;;7.05;4.88;;;;;;;;;;5069209;28;20024;-71
2023/03/24 11:15:03;;;;;;;5.10;4.60;;;;;;;;;;5070250;28;20764;-71
2023/03/24 11:17:29;;;;;;;5.95;5.32;;;;;;;;;;5064032;28;20033;-71
2023/03/24 11:19:57;;;;;;;5.45;4.85;;;;;;;;;;5071171;28;20019;-76
2023/03/24 11:22:24;;;;;;;6.22;4.72;;;;;;;;;;5065141;28;20081;-75
2023/03/24 11:24:52;;;;;;;6.28;4.85;;;;;;;;;;5068521;28;20025;-75
2023/03/24 11:27:19;;;;;;;5.75;4.50;;;;;;;;;;5065396;28;20071;-75
2023/03/24 11:29:48;;;;;;;6.32;4.90;;;;;;;;;;5066358;28;20021;-75
2023/03/24 11:32:18;;;;;;;5.22;4.70;;;;;;;;;;5066032;28;20036;-75
2023/03/24 11:34:51;;;;;;;6.95;5.30;;;;;;;;;;5066132;28;20028;-75
2023/03/24 11:37:20;;;;;;;5.22;4.50;;;;;;;;;;5066816;28;20019;-77
2023/03/24 11:40:08;;;;;;;7.07;4.40;;;;;;;;;;5070660;28;20039;-75
2023/03/24 11:42:40;;;;;;;5.32;3.92;;;;;;;;;;5063844;28;20099;-76
2023/03/24 11:45:06;;;;;;;;;;;;;;;;;;5066700;28;20043;-75
2023/03/24 11:47:36;;;;;;;4.20;3.80;;;;;;;;;;5065434;28;19924;-76
2023/03/24 11:50:11;;;;;;;6.95;6.25;;;;;;;;;;5067211;28;20488;-76
2023/03/24 11:52:40;;;;;;;6.38;4.35;;;;;;;;;;5066246;28;20108;-75
2023/03/24 11:55:34;;;;;;;4.45;4.05;;;;;;;;;;5068317;28;20023;-76
2023/03/24 11:58:02;;;;;;;7.35;5.10;;;;;;;;;;5068045;28;20036;-74
2023/03/24 12:00:29;;;;;;;5.18;4.68;;;;;;;;;;5063118;28;20500;-76
2023/03/24 12:03:04;;;;;;;4.88;4.38;;;;;;;;;;5064650;28;20545;-75
2023/03/24 12:05:41;;;;;;;5.25;4.72;;;;;;;;;;5063769;28;20032;-75
2023/03/24 12:08:14;;;;;;;7.18;4.70;;;;;;;;;;5072595;28;20028;-75
2023/03/24 12:10:43;;;;;;;5.63;5.00;;;;;;;;;;5065101;28;20489;-75
2023/03/24 12:13:15;;;;;;;5.63;4.80;;;;;;;;;;5071115;28;20388;-76
2023/03/24 12:16:03;;;;;;;4.15;3.72;;;;;;;;;;5067304;28;20077;-76
2023/03/24 12:18:30;;;;;;;5.32;4.60;;;;;;;;;;5061962;28;20107;-75
2023/03/24 12:20:56;;;;;;;4.95;4.30;;;;;;;;;;5064644;28;20028;-75
2023/03/24 12:23:34;;;;;;;5.97;4.40;;;;;;;;;;5067920;28;20055;-75
2023/03/24 12:26:18;;;;;;;6.32;4.20;;;;;;;;;;5064037;28;20036;-75
2023/03/24 12:28:53;;;;;;;5.88;4.47;;;;;;;;;;5068430;28;20078;-76
2023/03/24 12:31:35;;;;;;;4.18;3.72;;;;;;;;;;5062876;28;20161;-77
2023/03/24 12:34:11;;;;;;;6.22;3.85;;;;;;;;;;5070826;28;20708;-75
2023/03/24 12:36:47;;;;;;;5.18;4.65;;;;;;;;;;5062660;28;20483;-75
2023/03/24 12:39:30;;;;;;;5.03;4.53;;;;;;;;;;5069990;28;20031;-75
2023/03/24 12:42:09;;;;;;;5.20;4.47;;;;;;;;;;5063523;28;20024;-75
2023/03/24 12:44:51;;;;;;;4.53;3.60;;;;;;;;;;5064797;28;20028;-75
2023/03/24 12:47:26;;;;;;;5.03;3.58;;;;;;;;;;5068310;28;20709;-75
2023/03/24 12:50:04;;;;;;;4.95;4.05;;;;;;;;;;5070875;28;20043;-77
2023/03/24 12:52:40;;;;;;;5.95;4.55;;;;;;;;;;5063674;28;20024;-77
2023/03/24 12:55:13;;;;;;;4.88;4.30;;;;;;;;;;5066962;28;20024;-75
2023/03/24 12:57:47;;;;;;;6.60;3.80;;;;;;;;;;5066240;28;20028;-76
2023/03/24 13:00:26;;;;;;;7.68;4.50;;;;;;;;;;5063919;28;20090;-77
2023/03/24 13:02:54;;;;;;;5.95;4.03;;;;;;;;;;5069064;28;20107;-75
2023/03/24 13:05:23;;;;;;;4.97;4.28;;;;;;;;;;5067806;28;20119;-75
2023/03/24 13:07:56;;;;;;;6.68;4.32;;;;;;;;;;5068464;28;20564;-74
2023/03/24 13:10:25;;;;;;;6.05;4.10;;;;;;;;;;5068764;28;20123;-76
2023/03/24 13:12:57;;;;;;;6.57;4.05;;;;;;;;;;5069755;28;20604;-73
2023/03/24 13:15:34;;;;;;;4.15;3.60;;;;;;;;;;5063356;28;20103;-78
2023/03/24 13:18:01;;;;;;;5.57;3.67;;;;;;;;;;5069530;28;20097;-78
2023/03/24 13:20:33;;;;;;;5.60;4.43;;;;;;;;;;5072974;28;20028;-76
2023/03/24 13:23:04;;;;;;;4.30;3.90;;;;;;;;;;5065134;28;20497;-76
2023/03/24 13:25:33;;;;;;;5.57;4.23;;;;;;;;;;5067348;28;20056;-77
2023/03/24 13:28:04;;;;;;;4.85;3.70;;;;;;;;;;5070313;28;20359;-77
2023/03/24 13:30:34;;;;;;;5.93;3.53;;;;;;;;;;5072082;28;20187;-76
2023/03/24 13:33:04;;;;;;;8.30;3.92;;;;;;;;;;5072617;28;20114;-76
2023/03/24 13:35:37;;;;;;;5.25;3.90;;;;;;;;;;5076084;28;20020;-77
2023/03/24 13:38:28;;;;;;;7.57;4.70;;;;;;;;;;5072504;28;20074;-77
2023/03/24 13:40:55;;;;;;;11.32;4.47;;;;;;;;;;5070608;28;20028;-76
2023/03/24 13:43:26;;;;;;;5.43;3.80;;;;;;;;;;5069007;28;20024;-77
2023/03/24 13:45:59;;;;;;;4.63;3.78;;;;;;;;;;5062104;28;20028;-76
2023/03/24 13:48:31;;;;;;;4.85;3.83;;;;;;;;;;5067254;28;20480;-76
2023/03/24 13:50:58;;;;;;;;;;;;;;;;;;5073934;28;20039;-77
2023/03/24 13:53:31;;;;;;;4.82;3.72;;;;;;;;;;5070094;28;19904;-77
2023/03/24 13:55:59;;;;;;;5.68;3.65;;;;;;;;;;5068520;28;20042;-76
2023/03/24 13:58:27;;;;;;;5.07;4.25;;;;;;;;;;5072968;28;20036;-77
2023/03/24 14:01:08;;;;;;;4.15;3.75;;;;;;;;;;5069832;28;20532;-77
2023/03/24 14:03:35;;;;;;;5.75;4.10;;;;;;;;;;5073033;28;20123;-76
2023/03/24 14:06:03;;;;;;;8.27;4.82;;;;;;;;;;5071884;28;20028;-76
2023/03/24 14:08:55;;;;;;;7.00;4.63;;;;;;;;;;5071869;28;20151;-76
2023/03/24 14:11:32;;;;;;;4.57;3.83;;;;;;;;;;5068712;28;20037;-76
2023/03/24 14:14:14;;;;;;;4.38;3.97;;;;;;;;;;5062642;28;20028;-76
2023/03/24 14:17:02;;;;;;;4.85;3.88;;;;;;;;;;5065634;28;20032;-76
2023/03/24 14:19:45;;;;;;;7.45;3.58;;;;;;;;;;5067364;28;20020;-75
2023/03/24 14:22:29;;;;;;;4.72;3.35;;;;;;;;;;5068113;28;20024;-75
2023/03/24 14:25:15;;;;;;;5.88;3.63;;;;;;;;;;5069576;28;20576;-76
2023/03/24 14:27:46;;;;;;;12.32;3.95;;;;;;;;;;5065267;28;20468;-76
2023/03/24 14:30:16;;;;;;;5.43;3.25;;;;;;;;;;5068429;28;20020;-77
2023/03/24 14:33:01;;;;;;;5.38;4.07;;;;;;;;;;5070195;28;20060;-75
2023/03/24 14:35:35;;;;;;;6.35;4.43;;;;;;;;;;5065611;28;20159;-76
2023/03/24 14:38:25;;;;;;;7.18;4.47;;;;;;;;;;5070879;28;20028;-79
2023/03/24 14:40:56;;;;;;;4.93;3.97;;;;;;;;;;5065065;28;20047;-82
2023/03/24 14:43:42;;;;;;;4.80;4.10;;;;;;;;;;5070523;28;20044;-76
2023/03/24 14:46:21;;;;;;;5.80;4.00;;;;;;;;;;5069314;28;20186;-77
2023/03/24 14:49:08;;;;;;;4.75;4.10;;;;;;;;;;5067307;28;20062;-76
2023/03/24 14:51:52;;;;;;;4.65;3.72;;;;;;;;;;5070242;28;20052;-77
2023/03/24 14:54:26;;;;;;;4.90;4.40;;;;;;;;;;5076226;28;20663;-77
2023/03/24 14:56:53;;;;;;;5.07;4.13;;;;;;;;;;5073629;28;20059;-76
2023/03/24 14:59:27;;;;;;;6.68;4.82;;;;;;;;;;5066178;28;20605;-77
2023/03/24 15:01:59;;;;;;;4.60;4.10;;;;;;;;;;5064920;28;20033;-78